sensor_id;sensor_type;location;lat;lon;timestamp;temperature;humidity
19363;DHT22;9817;50.80926400;5.16316200;2022-07-30T00:01:03;19.70;99.90
19363;DHT22;9817;50.80926400;5.16316200;2022-07-30T00:03:29;19.70;99.90
19363;DHT22;9817;50.80926400;5.16316200;2022-07-30T00:05:55;19.70;99.90
19363;DHT22;9817;50.80926400;5.16316200;2022-07-30T00:08:21;19.60;99.90
19363;DHT22;9817;50.80926400;5.16316200;2022-07-30T00:10:47;19.60;99.90
19363;DHT22;9817;50.80926400;5.16316200;2022-07-30T00:13:13;19.60;99.90
19363;DHT22;9817;50.80926400;5.16316200;2022-07-30T00:15:39;19.50;99.90
19363;DHT22;9817;50.80926400;5.16316200;2022-07-30T00:18:04;19.40;99.90
19363;DHT22;9817;50.80926400;5.16316200;2022-07-30T00:20:30;19.40;99.90
19363;DHT22;9817;50.80926400;5.16316200;2022-07-30T00:22:56;19.40;99.90
19363;DHT22;9817;50.80926400;5.16316200;2022-07-30T00:25:21;19.40;99.90
19363;DHT22;9817;50.80926400;5.16316200;2022-07-30T00:27:47;19.30;99.90
19363;DHT22;9817;50.80926400;5.16316200;2022-07-30T00:30:13;19.30;99.90
19363;DHT22;9817;50.80926400;5.16316200;2022-07-30T00:32:39;19.30;99.90
19363;DHT22;9817;50.80926400;5.16316200;2022-07-30T00:35:05;19.20;99.90
19363;DHT22;9817;50.80926400;5.16316200;2022-07-30T00:37:31;19.20;99.90
19363;DHT22;9817;50.80926400;5.16316200;2022-07-30T00:39:57;19.20;99.90
19363;DHT22;9817;50.80926400;5.16316200;2022-07-30T00:42:22;19.20;99.90
19363;DHT22;9817;50.80926400;5.16316200;2022-07-30T00:44:52;19.10;99.90
19363;DHT22;9817;50.80926400;5.16316200;2022-07-30T00:47:17;19.00;99.90
19363;DHT22;9817;50.80926400;5.16316200;2022-07-30T00:49:43;19.00;99.90
19363;DHT22;9817;50.80926400;5.16316200;2022-07-30T00:52:09;18.90;99.90
19363;DHT22;9817;50.80926400;5.16316200;2022-07-30T00:54:34;18.80;99.90
19363;DHT22;9817;50.80926400;5.16316200;2022-07-30T00:57:00;18.70;99.90
19363;DHT22;9817;50.80926400;5.16316200;2022-07-30T00:59:26;18.70;99.90
19363;DHT22;9817;50.80926400;5.16316200;2022-07-30T01:01:53;18.60;99.90
19363;DHT22;9817;50.80926400;5.16316200;2022-07-30T01:04:19;18.50;99.90
19363;DHT22;9817;50.80926400;5.16316200;2022-07-30T01:06:45;18.40;99.90
19363;DHT22;9817;50.80926400;5.16316200;2022-07-30T01:09:11;18.40;99.90
19363;DHT22;9817;50.80926400;5.16316200;2022-07-30T01:11:38;18.30;99.90
19363;DHT22;9817;50.80926400;5.16316200;2022-07-30T01:14:05;18.30;99.90
19363;DHT22;9817;50.80926400;5.16316200;2022-07-30T01:16:33;18.30;99.90
19363;DHT22;9817;50.80926400;5.16316200;2022-07-30T01:18:59;18.30;99.90
19363;DHT22;9817;50.80926400;5.16316200;2022-07-30T01:21:50;18.10;99.90
19363;DHT22;9817;50.80926400;5.16316200;2022-07-30T01:26:48;17.90;99.90
19363;DHT22;9817;50.80926400;5.16316200;2022-07-30T01:29:15;17.90;99.90
19363;DHT22;9817;50.80926400;5.16316200;2022-07-30T01:31:43;17.90;99.90
19363;DHT22;9817;50.80926400;5.16316200;2022-07-30T01:34:11;17.80;99.90
19363;DHT22;9817;50.80926400;5.16316200;2022-07-30T01:36:40;17.70;99.90
19363;DHT22;9817;50.80926400;5.16316200;2022-07-30T01:39:07;17.70;99.90
19363;DHT22;9817;50.80926400;5.16316200;2022-07-30T01:41:34;17.60;99.90
19363;DHT22;9817;50.80926400;5.16316200;2022-07-30T01:44:01;17.60;99.90
19363;DHT22;9817;50.80926400;5.16316200;2022-07-30T01:46:27;17.70;99.90
19363;DHT22;9817;50.80926400;5.16316200;2022-07-30T01:48:54;17.80;99.90
19363;DHT22;9817;50.80926400;5.16316200;2022-07-30T01:51:21;17.70;99.90
19363;DHT22;9817;50.80926400;5.16316200;2022-07-30T01:53:49;17.70;99.90
19363;DHT22;9817;50.80926400;5.16316200;2022-07-30T01:56:16;17.60;99.90
19363;DHT22;9817;50.80926400;5.16316200;2022-07-30T01:58:45;17.50;99.90
19363;DHT22;9817;50.80926400;5.16316200;2022-07-30T02:01:12;17.70;99.90
19363;DHT22;9817;50.80926400;5.16316200;2022-07-30T02:03:38;17.60;99.90
19363;DHT22;9817;50.80926400;5.16316200;2022-07-30T02:06:08;17.60;99.90
19363;DHT22;9817;50.80926400;5.16316200;2022-07-30T02:08:44;17.40;99.90
19363;DHT22;9817;50.80926400;5.16316200;2022-07-30T02:11:17;17.30;99.90
19363;DHT22;9817;50.80926400;5.16316200;2022-07-30T02:14:04;17.20;99.90
19363;DHT22;9817;50.80926400;5.16316200;2022-07-30T02:16:37;17.20;99.90
19363;DHT22;9817;50.80926400;5.16316200;2022-07-30T02:19:13;17.20;99.90
19363;DHT22;9817;50.80926400;5.16316200;2022-07-30T02:21:44;17.20;99.90
19363;DHT22;9817;50.80926400;5.16316200;2022-07-30T02:24:17;17.10;99.90
19363;DHT22;9817;50.80926400;5.16316200;2022-07-30T02:26:48;17.10;99.90
19363;DHT22;9817;50.80926400;5.16316200;2022-07-30T02:29:15;17.10;99.90
19363;DHT22;9817;50.80926400;5.16316200;2022-07-30T02:31:42;17.00;99.90
19363;DHT22;9817;50.80926400;5.16316200;2022-07-30T02:34:09;17.10;99.90
19363;DHT22;9817;50.80926400;5.16316200;2022-07-30T02:36:38;17.00;99.90
19363;DHT22;9817;50.80926400;5.16316200;2022-07-30T02:39:07;16.90;99.90
19363;DHT22;9817;50.80926400;5.16316200;2022-07-30T02:41:34;16.80;99.90
19363;DHT22;9817;50.80926400;5.16316200;2022-07-30T02:44:02;16.90;99.90
19363;DHT22;9817;50.80926400;5.16316200;2022-07-30T02:46:29;16.90;99.90
19363;DHT22;9817;50.80926400;5.16316200;2022-07-30T02:48:57;16.80;99.90
19363;DHT22;9817;50.80926400;5.16316200;2022-07-30T02:51:25;16.80;99.90
19363;DHT22;9817;50.80926400;5.16316200;2022-07-30T02:53:53;16.80;99.90
19363;DHT22;9817;50.80926400;5.16316200;2022-07-30T02:56:21;16.90;99.90
19363;DHT22;9817;50.80926400;5.16316200;2022-07-30T02:58:47;16.90;99.90
19363;DHT22;9817;50.80926400;5.16316200;2022-07-30T03:01:15;16.80;99.90
19363;DHT22;9817;50.80926400;5.16316200;2022-07-30T03:03:43;16.70;99.90
19363;DHT22;9817;50.80926400;5.16316200;2022-07-30T03:06:11;16.60;99.90
19363;DHT22;9817;50.80926400;5.16316200;2022-07-30T03:08:39;16.50;99.90
19363;DHT22;9817;50.80926400;5.16316200;2022-07-30T03:11:05;16.50;99.90
19363;DHT22;9817;50.80926400;5.16316200;2022-07-30T03:13:32;16.60;99.90
19363;DHT22;9817;50.80926400;5.16316200;2022-07-30T03:15:58;16.60;99.90
19363;DHT22;9817;50.80926400;5.16316200;2022-07-30T03:18:27;16.60;99.90
19363;DHT22;9817;50.80926400;5.16316200;2022-07-30T03:20:58;16.60;99.90
19363;DHT22;9817;50.80926400;5.16316200;2022-07-30T03:23:25;16.60;99.90
19363;DHT22;9817;50.80926400;5.16316200;2022-07-30T03:25:53;16.60;99.90
19363;DHT22;9817;50.80926400;5.16316200;2022-07-30T03:28:22;16.50;99.90
19363;DHT22;9817;50.80926400;5.16316200;2022-07-30T03:30:48;16.50;99.90
19363;DHT22;9817;50.80926400;5.16316200;2022-07-30T03:33:15;16.40;99.90
19363;DHT22;9817;50.80926400;5.16316200;2022-07-30T03:35:42;16.40;99.90
19363;DHT22;9817;50.80926400;5.16316200;2022-07-30T03:38:12;16.30;99.90
19363;DHT22;9817;50.80926400;5.16316200;2022-07-30T03:40:40;16.30;99.90
19363;DHT22;9817;50.80926400;5.16316200;2022-07-30T03:43:07;16.30;99.90
19363;DHT22;9817;50.80926400;5.16316200;2022-07-30T03:45:35;16.40;99.90
19363;DHT22;9817;50.80926400;5.16316200;2022-07-30T03:48:01;16.30;99.90
19363;DHT22;9817;50.80926400;5.16316200;2022-07-30T03:50:28;16.20;99.90
19363;DHT22;9817;50.80926400;5.16316200;2022-07-30T03:52:55;16.30;99.90
19363;DHT22;9817;50.80926400;5.16316200;2022-07-30T03:55:21;16.20;99.90
19363;DHT22;9817;50.80926400;5.16316200;2022-07-30T03:57:47;16.20;99.90
19363;DHT22;9817;50.80926400;5.16316200;2022-07-30T04:00:14;16.20;99.90
19363;DHT22;9817;50.80926400;5.16316200;2022-07-30T04:02:44;16.20;99.90
19363;DHT22;9817;50.80926400;5.16316200;2022-07-30T04:05:11;16.30;99.90
19363;DHT22;9817;50.80926400;5.16316200;2022-07-30T04:07:38;16.40;99.90
19363;DHT22;9817;50.80926400;5.16316200;2022-07-30T04:10:04;16.40;99.90
19363;DHT22;9817;50.80926400;5.16316200;2022-07-30T04:12:30;16.50;99.90
19363;DHT22;9817;50.80926400;5.16316200;2022-07-30T04:14:56;16.50;99.90
19363;DHT22;9817;50.80926400;5.16316200;2022-07-30T04:17:34;16.60;99.90
19363;DHT22;9817;50.80926400;5.16316200;2022-07-30T04:20:07;16.80;99.90
19363;DHT22;9817;50.80926400;5.16316200;2022-07-30T04:22:35;16.70;99.90
19363;DHT22;9817;50.80926400;5.16316200;2022-07-30T04:25:03;16.80;99.90
19363;DHT22;9817;50.80926400;5.16316200;2022-07-30T04:27:31;16.90;99.90
19363;DHT22;9817;50.80926400;5.16316200;2022-07-30T04:29:57;17.00;99.90
19363;DHT22;9817;50.80926400;5.16316200;2022-07-30T04:32:23;17.20;99.90
19363;DHT22;9817;50.80926400;5.16316200;2022-07-30T04:34:50;17.20;99.90
19363;DHT22;9817;50.80926400;5.16316200;2022-07-30T04:37:17;17.30;99.90
19363;DHT22;9817;50.80926400;5.16316200;2022-07-30T04:39:43;17.30;99.90
19363;DHT22;9817;50.80926400;5.16316200;2022-07-30T04:42:09;17.30;99.90
19363;DHT22;9817;50.80926400;5.16316200;2022-07-30T04:44:36;17.40;99.90
19363;DHT22;9817;50.80926400;5.16316200;2022-07-30T04:47:02;17.50;99.90
19363;DHT22;9817;50.80926400;5.16316200;2022-07-30T04:49:29;17.60;99.90
19363;DHT22;9817;50.80926400;5.16316200;2022-07-30T04:51:55;17.60;99.90
19363;DHT22;9817;50.80926400;5.16316200;2022-07-30T04:54:21;17.70;99.90
19363;DHT22;9817;50.80926400;5.16316200;2022-07-30T04:56:50;17.80;99.90
19363;DHT22;9817;50.80926400;5.16316200;2022-07-30T04:59:17;17.90;99.90
19363;DHT22;9817;50.80926400;5.16316200;2022-07-30T05:01:46;17.90;99.90
19363;DHT22;9817;50.80926400;5.16316200;2022-07-30T05:04:14;17.90;99.90
19363;DHT22;9817;50.80926400;5.16316200;2022-07-30T05:06:41;17.90;99.90
19363;DHT22;9817;50.80926400;5.16316200;2022-07-30T05:09:07;18.00;99.90
19363;DHT22;9817;50.80926400;5.16316200;2022-07-30T05:11:33;18.10;99.90
19363;DHT22;9817;50.80926400;5.16316200;2022-07-30T05:13:59;18.00;99.90
19363;DHT22;9817;50.80926400;5.16316200;2022-07-30T05:16:25;18.20;99.90
19363;DHT22;9817;50.80926400;5.16316200;2022-07-30T05:18:50;18.30;99.90
19363;DHT22;9817;50.80926400;5.16316200;2022-07-30T05:21:16;18.40;99.90
19363;DHT22;9817;50.80926400;5.16316200;2022-07-30T05:23:42;18.40;99.90
19363;DHT22;9817;50.80926400;5.16316200;2022-07-30T05:26:07;18.50;99.90
19363;DHT22;9817;50.80926400;5.16316200;2022-07-30T05:28:33;18.70;99.90
19363;DHT22;9817;50.80926400;5.16316200;2022-07-30T05:30:59;18.80;99.90
19363;DHT22;9817;50.80926400;5.16316200;2022-07-30T05:33:24;18.90;99.90
19363;DHT22;9817;50.80926400;5.16316200;2022-07-30T05:35:50;19.10;99.90
19363;DHT22;9817;50.80926400;5.16316200;2022-07-30T05:38:16;19.10;99.90
19363;DHT22;9817;50.80926400;5.16316200;2022-07-30T05:40:42;19.20;99.90
19363;DHT22;9817;50.80926400;5.16316200;2022-07-30T05:43:09;19.10;99.90
19363;DHT22;9817;50.80926400;5.16316200;2022-07-30T05:45:35;19.20;99.90
19363;DHT22;9817;50.80926400;5.16316200;2022-07-30T05:48:01;19.20;99.90
19363;DHT22;9817;50.80926400;5.16316200;2022-07-30T05:50:26;19.20;99.90
19363;DHT22;9817;50.80926400;5.16316200;2022-07-30T05:52:52;19.10;99.90
19363;DHT22;9817;50.80926400;5.16316200;2022-07-30T05:55:18;19.10;99.90
19363;DHT22;9817;50.80926400;5.16316200;2022-07-30T05:57:43;19.20;99.90
19363;DHT22;9817;50.80926400;5.16316200;2022-07-30T06:00:10;19.10;99.90
19363;DHT22;9817;50.80926400;5.16316200;2022-07-30T06:02:36;19.20;99.90
19363;DHT22;9817;50.80926400;5.16316200;2022-07-30T06:05:04;19.40;99.90
19363;DHT22;9817;50.80926400;5.16316200;2022-07-30T06:07:29;19.60;99.90
19363;DHT22;9817;50.80926400;5.16316200;2022-07-30T06:09:55;19.50;99.90
19363;DHT22;9817;50.80926400;5.16316200;2022-07-30T06:12:28;19.60;99.90
19363;DHT22;9817;50.80926400;5.16316200;2022-07-30T06:14:54;19.60;99.90
19363;DHT22;9817;50.80926400;5.16316200;2022-07-30T06:17:20;19.60;99.90
19363;DHT22;9817;50.80926400;5.16316200;2022-07-30T06:19:46;19.80;99.90
19363;DHT22;9817;50.80926400;5.16316200;2022-07-30T06:22:11;19.70;99.90
19363;DHT22;9817;50.80926400;5.16316200;2022-07-30T06:24:37;19.60;99.90
19363;DHT22;9817;50.80926400;5.16316200;2022-07-30T06:27:03;19.70;99.90
19363;DHT22;9817;50.80926400;5.16316200;2022-07-30T06:29:29;20.00;99.90
19363;DHT22;9817;50.80926400;5.16316200;2022-07-30T06:31:54;20.00;99.90
19363;DHT22;9817;50.80926400;5.16316200;2022-07-30T06:34:20;20.10;99.90
19363;DHT22;9817;50.80926400;5.16316200;2022-07-30T06:36:46;20.00;99.90
19363;DHT22;9817;50.80926400;5.16316200;2022-07-30T06:39:11;20.10;99.90
19363;DHT22;9817;50.80926400;5.16316200;2022-07-30T06:41:37;20.20;99.90
19363;DHT22;9817;50.80926400;5.16316200;2022-07-30T06:44:03;20.20;99.90
19363;DHT22;9817;50.80926400;5.16316200;2022-07-30T06:46:28;20.20;99.90
19363;DHT22;9817;50.80926400;5.16316200;2022-07-30T06:48:54;20.30;99.90
19363;DHT22;9817;50.80926400;5.16316200;2022-07-30T06:51:19;20.30;99.90
19363;DHT22;9817;50.80926400;5.16316200;2022-07-30T06:53:45;20.40;99.90
19363;DHT22;9817;50.80926400;5.16316200;2022-07-30T06:56:12;20.40;99.90
19363;DHT22;9817;50.80926400;5.16316200;2022-07-30T06:58:37;20.50;99.90
19363;DHT22;9817;50.80926400;5.16316200;2022-07-30T07:01:03;20.60;99.90
19363;DHT22;9817;50.80926400;5.16316200;2022-07-30T07:03:29;20.50;99.90
19363;DHT22;9817;50.80926400;5.16316200;2022-07-30T07:05:55;20.50;99.90
19363;DHT22;9817;50.80926400;5.16316200;2022-07-30T07:08:20;20.50;99.90
19363;DHT22;9817;50.80926400;5.16316200;2022-07-30T07:10:46;20.40;99.90
19363;DHT22;9817;50.80926400;5.16316200;2022-07-30T07:13:12;20.40;99.90
19363;DHT22;9817;50.80926400;5.16316200;2022-07-30T07:15:38;20.50;99.90
19363;DHT22;9817;50.80926400;5.16316200;2022-07-30T07:18:04;20.50;99.90
19363;DHT22;9817;50.80926400;5.16316200;2022-07-30T07:20:31;20.50;99.90
19363;DHT22;9817;50.80926400;5.16316200;2022-07-30T07:22:57;20.60;99.90
19363;DHT22;9817;50.80926400;5.16316200;2022-07-30T07:25:23;20.70;99.90
19363;DHT22;9817;50.80926400;5.16316200;2022-07-30T07:27:49;20.80;99.90
19363;DHT22;9817;50.80926400;5.16316200;2022-07-30T07:30:14;20.90;99.90
19363;DHT22;9817;50.80926400;5.16316200;2022-07-30T07:32:40;21.00;99.90
19363;DHT22;9817;50.80926400;5.16316200;2022-07-30T07:35:06;21.00;99.90
19363;DHT22;9817;50.80926400;5.16316200;2022-07-30T07:37:32;21.00;99.90
19363;DHT22;9817;50.80926400;5.16316200;2022-07-30T07:39:57;21.10;99.90
19363;DHT22;9817;50.80926400;5.16316200;2022-07-30T07:42:23;21.20;99.90
19363;DHT22;9817;50.80926400;5.16316200;2022-07-30T07:44:49;21.30;99.90
19363;DHT22;9817;50.80926400;5.16316200;2022-07-30T07:47:14;21.60;99.90
19363;DHT22;9817;50.80926400;5.16316200;2022-07-30T07:49:40;22.60;99.90
19363;DHT22;9817;50.80926400;5.16316200;2022-07-30T07:52:06;24.60;99.90
19363;DHT22;9817;50.80926400;5.16316200;2022-07-30T07:54:31;27.90;99.90
19363;DHT22;9817;50.80926400;5.16316200;2022-07-30T07:56:57;30.90;99.90
19363;DHT22;9817;50.80926400;5.16316200;2022-07-30T07:59:23;33.60;93.50
19363;DHT22;9817;50.80926400;5.16316200;2022-07-30T08:01:49;35.70;86.10
19363;DHT22;9817;50.80926400;5.16316200;2022-07-30T08:04:15;37.60;77.70
19363;DHT22;9817;50.80926400;5.16316200;2022-07-30T08:06:41;39.20;70.30
19363;DHT22;9817;50.80926400;5.16316200;2022-07-30T08:09:06;40.20;64.90
19363;DHT22;9817;50.80926400;5.16316200;2022-07-30T08:11:32;40.50;60.70
19363;DHT22;9817;50.80926400;5.16316200;2022-07-30T08:13:58;40.80;58.70
19363;DHT22;9817;50.80926400;5.16316200;2022-07-30T08:16:23;41.00;56.20
19363;DHT22;9817;50.80926400;5.16316200;2022-07-30T08:18:49;41.10;56.00
19363;DHT22;9817;50.80926400;5.16316200;2022-07-30T08:21:15;42.00;55.20
19363;DHT22;9817;50.80926400;5.16316200;2022-07-30T08:23:40;42.40;53.00
19363;DHT22;9817;50.80926400;5.16316200;2022-07-30T08:26:06;42.90;52.30
19363;DHT22;9817;50.80926400;5.16316200;2022-07-30T08:28:32;42.90;50.70
19363;DHT22;9817;50.80926400;5.16316200;2022-07-30T08:30:57;43.40;50.10
19363;DHT22;9817;50.80926400;5.16316200;2022-07-30T08:33:23;43.70;48.80
19363;DHT22;9817;50.80926400;5.16316200;2022-07-30T08:35:48;43.90;48.50
19363;DHT22;9817;50.80926400;5.16316200;2022-07-30T08:38:14;44.20;47.40
19363;DHT22;9817;50.80926400;5.16316200;2022-07-30T08:40:40;44.40;47.60
19363;DHT22;9817;50.80926400;5.16316200;2022-07-30T08:43:06;44.60;47.30
19363;DHT22;9817;50.80926400;5.16316200;2022-07-30T08:45:33;44.30;47.00
19363;DHT22;9817;50.80926400;5.16316200;2022-07-30T08:48:00;44.40;45.80
19363;DHT22;9817;50.80926400;5.16316200;2022-07-30T08:50:27;44.50;45.50
19363;DHT22;9817;50.80926400;5.16316200;2022-07-30T08:52:54;44.40;45.50
19363;DHT22;9817;50.80926400;5.16316200;2022-07-30T08:55:23;44.40;45.90
19363;DHT22;9817;50.80926400;5.16316200;2022-07-30T08:57:50;44.00;46.30
19363;DHT22;9817;50.80926400;5.16316200;2022-07-30T09:00:17;43.70;45.80
19363;DHT22;9817;50.80926400;5.16316200;2022-07-30T09:02:42;43.80;46.00
19363;DHT22;9817;50.80926400;5.16316200;2022-07-30T09:05:09;44.20;45.40
19363;DHT22;9817;50.80926400;5.16316200;2022-07-30T09:07:35;44.10;44.00
19363;DHT22;9817;50.80926400;5.16316200;2022-07-30T09:10:06;44.40;44.10
19363;DHT22;9817;50.80926400;5.16316200;2022-07-30T09:12:43;44.70;44.30
19363;DHT22;9817;50.80926400;5.16316200;2022-07-30T09:20:20;45.50;43.10
19363;DHT22;9817;50.80926400;5.16316200;2022-07-30T09:22:51;45.80;42.30
19363;DHT22;9817;50.80926400;5.16316200;2022-07-30T09:25:44;46.10;41.90
19363;DHT22;9817;50.80926400;5.16316200;2022-07-30T09:28:10;45.40;41.30
19363;DHT22;9817;50.80926400;5.16316200;2022-07-30T09:30:53;45.10;41.20
19363;DHT22;9817;50.80926400;5.16316200;2022-07-30T09:35:59;45.40;40.90
19363;DHT22;9817;50.80926400;5.16316200;2022-07-30T09:38:26;45.40;40.70
19363;DHT22;9817;50.80926400;5.16316200;2022-07-30T09:40:54;45.00;41.60
19363;DHT22;9817;50.80926400;5.16316200;2022-07-30T09:43:20;45.20;41.30
19363;DHT22;9817;50.80926400;5.16316200;2022-07-30T09:45:51;45.10;41.10
19363;DHT22;9817;50.80926400;5.16316200;2022-07-30T09:48:21;45.30;41.40
19363;DHT22;9817;50.80926400;5.16316200;2022-07-30T09:50:49;45.50;42.00
19363;DHT22;9817;50.80926400;5.16316200;2022-07-30T09:53:15;45.70;41.30
19363;DHT22;9817;50.80926400;5.16316200;2022-07-30T09:55:40;45.80;41.50
19363;DHT22;9817;50.80926400;5.16316200;2022-07-30T09:58:06;45.80;40.40
19363;DHT22;9817;50.80926400;5.16316200;2022-07-30T10:00:33;45.90;39.80
19363;DHT22;9817;50.80926400;5.16316200;2022-07-30T10:03:00;45.90;40.50
19363;DHT22;9817;50.80926400;5.16316200;2022-07-30T10:05:27;45.90;40.00
19363;DHT22;9817;50.80926400;5.16316200;2022-07-30T10:07:58;45.50;40.40
19363;DHT22;9817;50.80926400;5.16316200;2022-07-30T10:10:27;45.30;40.70
19363;DHT22;9817;50.80926400;5.16316200;2022-07-30T10:13:01;45.00;40.20
19363;DHT22;9817;50.80926400;5.16316200;2022-07-30T10:15:32;44.70;40.40
19363;DHT22;9817;50.80926400;5.16316200;2022-07-30T10:17:59;44.50;40.40
19363;DHT22;9817;50.80926400;5.16316200;2022-07-30T10:20:25;43.10;40.90
19363;DHT22;9817;50.80926400;5.16316200;2022-07-30T10:22:52;42.70;41.70
19363;DHT22;9817;50.80926400;5.16316200;2022-07-30T10:25:23;41.70;42.90
19363;DHT22;9817;50.80926400;5.16316200;2022-07-30T10:27:50;39.80;44.50
19363;DHT22;9817;50.80926400;5.16316200;2022-07-30T10:30:17;39.00;45.50
19363;DHT22;9817;50.80926400;5.16316200;2022-07-30T10:32:44;38.20;46.60
19363;DHT22;9817;50.80926400;5.16316200;2022-07-30T10:35:11;37.30;47.50
19363;DHT22;9817;50.80926400;5.16316200;2022-07-30T10:37:41;36.80;49.80
19363;DHT22;9817;50.80926400;5.16316200;2022-07-30T10:45:19;34.80;52.60
19363;DHT22;9817;50.80926400;5.16316200;2022-07-30T10:47:49;34.30;53.70
19363;DHT22;9817;50.80926400;5.16316200;2022-07-30T10:50:17;33.80;54.90
19363;DHT22;9817;50.80926400;5.16316200;2022-07-30T10:55:17;33.10;56.70
19363;DHT22;9817;50.80926400;5.16316200;2022-07-30T10:58:07;33.00;56.40
19363;DHT22;9817;50.80926400;5.16316200;2022-07-30T11:00:35;32.70;56.10
19363;DHT22;9817;50.80926400;5.16316200;2022-07-30T11:03:27;32.60;56.60
19363;DHT22;9817;50.80926400;5.16316200;2022-07-30T11:06:30;32.00;57.10
19363;DHT22;9817;50.80926400;5.16316200;2022-07-30T11:08:55;32.10;59.10
19363;DHT22;9817;50.80926400;5.16316200;2022-07-30T11:13:50;32.20;58.70
19363;DHT22;9817;50.80926400;5.16316200;2022-07-30T11:16:18;32.10;56.60
19363;DHT22;9817;50.80926400;5.16316200;2022-07-30T11:19:04;32.30;58.40
19363;DHT22;9817;50.80926400;5.16316200;2022-07-30T11:21:31;32.50;57.90
19363;DHT22;9817;50.80926400;5.16316200;2022-07-30T11:23:58;32.40;57.90
19363;DHT22;9817;50.80926400;5.16316200;2022-07-30T11:29:06;32.60;58.70
19363;DHT22;9817;50.80926400;5.16316200;2022-07-30T11:31:34;32.30;58.60
19363;DHT22;9817;50.80926400;5.16316200;2022-07-30T11:37:09;31.80;59.30
19363;DHT22;9817;50.80926400;5.16316200;2022-07-30T11:42:37;31.90;59.50
19363;DHT22;9817;50.80926400;5.16316200;2022-07-30T11:47:45;32.80;58.80
19363;DHT22;9817;50.80926400;5.16316200;2022-07-30T11:53:04;33.30;58.30
19363;DHT22;9817;50.80926400;5.16316200;2022-07-30T11:55:32;33.40;59.00
19363;DHT22;9817;50.80926400;5.16316200;2022-07-30T11:57:59;33.30;58.80
19363;DHT22;9817;50.80926400;5.16316200;2022-07-30T12:00:42;33.20;58.70
19363;DHT22;9817;50.80926400;5.16316200;2022-07-30T12:03:16;33.30;58.20
19363;DHT22;9817;50.80926400;5.16316200;2022-07-30T12:05:43;33.00;59.00
19363;DHT22;9817;50.80926400;5.16316200;2022-07-30T12:08:10;32.80;58.80
19363;DHT22;9817;50.80926400;5.16316200;2022-07-30T12:10:37;32.70;60.20
19363;DHT22;9817;50.80926400;5.16316200;2022-07-30T12:13:14;32.70;60.10
19363;DHT22;9817;50.80926400;5.16316200;2022-07-30T12:15:45;32.70;60.10
19363;DHT22;9817;50.80926400;5.16316200;2022-07-30T12:18:11;32.70;62.00
19363;DHT22;9817;50.80926400;5.16316200;2022-07-30T12:20:41;32.60;62.30
19363;DHT22;9817;50.80926400;5.16316200;2022-07-30T12:23:14;32.50;62.90
19363;DHT22;9817;50.80926400;5.16316200;2022-07-30T12:25:42;32.60;63.40
19363;DHT22;9817;50.80926400;5.16316200;2022-07-30T12:28:09;32.50;60.20
19363;DHT22;9817;50.80926400;5.16316200;2022-07-30T12:30:39;32.70;60.60
19363;DHT22;9817;50.80926400;5.16316200;2022-07-30T12:33:08;32.90;59.80
19363;DHT22;9817;50.80926400;5.16316200;2022-07-30T12:35:48;32.80;60.50
19363;DHT22;9817;50.80926400;5.16316200;2022-07-30T12:38:15;32.80;58.60
19363;DHT22;9817;50.80926400;5.16316200;2022-07-30T12:40:52;32.70;58.50
19363;DHT22;9817;50.80926400;5.16316200;2022-07-30T12:46:14;32.00;59.50
19363;DHT22;9817;50.80926400;5.16316200;2022-07-30T12:48:57;31.90;61.70
19363;DHT22;9817;50.80926400;5.16316200;2022-07-30T12:51:27;31.80;61.30
19363;DHT22;9817;50.80926400;5.16316200;2022-07-30T12:53:54;31.60;62.00
19363;DHT22;9817;50.80926400;5.16316200;2022-07-30T12:56:22;31.70;63.60
19363;DHT22;9817;50.80926400;5.16316200;2022-07-30T12:58:49;31.60;63.90
19363;DHT22;9817;50.80926400;5.16316200;2022-07-30T13:01:15;31.50;64.90
19363;DHT22;9817;50.80926400;5.16316200;2022-07-30T13:03:41;31.70;63.00
19363;DHT22;9817;50.80926400;5.16316200;2022-07-30T13:06:21;31.80;65.20
19363;DHT22;9817;50.80926400;5.16316200;2022-07-30T13:08:55;31.70;64.00
19363;DHT22;9817;50.80926400;5.16316200;2022-07-30T13:11:35;31.80;65.80
19363;DHT22;9817;50.80926400;5.16316200;2022-07-30T13:14:01;32.30;64.70
19363;DHT22;9817;50.80926400;5.16316200;2022-07-30T13:16:31;32.20;58.90
19363;DHT22;9817;50.80926400;5.16316200;2022-07-30T13:18:56;32.00;60.30
19363;DHT22;9817;50.80926400;5.16316200;2022-07-30T13:21:22;32.20;61.70
19363;DHT22;9817;50.80926400;5.16316200;2022-07-30T13:23:48;32.00;61.60
19363;DHT22;9817;50.80926400;5.16316200;2022-07-30T13:26:13;32.10;65.60
19363;DHT22;9817;50.80926400;5.16316200;2022-07-30T13:28:39;32.30;64.20
19363;DHT22;9817;50.80926400;5.16316200;2022-07-30T13:31:05;32.00;62.30
19363;DHT22;9817;50.80926400;5.16316200;2022-07-30T13:33:35;31.90;63.50
19363;DHT22;9817;50.80926400;5.16316200;2022-07-30T13:36:01;32.20;62.40
19363;DHT22;9817;50.80926400;5.16316200;2022-07-30T13:38:27;32.40;61.90
19363;DHT22;9817;50.80926400;5.16316200;2022-07-30T13:40:54;32.60;60.40
19363;DHT22;9817;50.80926400;5.16316200;2022-07-30T13:43:20;32.40;63.60
19363;DHT22;9817;50.80926400;5.16316200;2022-07-30T13:45:46;32.40;64.40
19363;DHT22;9817;50.80926400;5.16316200;2022-07-30T13:48:12;32.40;65.50
19363;DHT22;9817;50.80926400;5.16316200;2022-07-30T13:50:39;31.80;63.50
19363;DHT22;9817;50.80926400;5.16316200;2022-07-30T13:53:05;31.70;64.00
19363;DHT22;9817;50.80926400;5.16316200;2022-07-30T13:55:31;31.60;65.60
19363;DHT22;9817;50.80926400;5.16316200;2022-07-30T13:57:57;31.50;64.40
19363;DHT22;9817;50.80926400;5.16316200;2022-07-30T14:00:23;31.50;65.40
19363;DHT22;9817;50.80926400;5.16316200;2022-07-30T14:02:49;31.50;67.60
19363;DHT22;9817;50.80926400;5.16316200;2022-07-30T14:05:15;31.20;66.60
19363;DHT22;9817;50.80926400;5.16316200;2022-07-30T14:07:41;31.20;66.10
19363;DHT22;9817;50.80926400;5.16316200;2022-07-30T14:10:07;31.20;63.90
19363;DHT22;9817;50.80926400;5.16316200;2022-07-30T14:12:34;31.10;65.10
19363;DHT22;9817;50.80926400;5.16316200;2022-07-30T14:15:00;31.10;67.70